createdAt,value
2023-02-06T00:01:27.377Z,81.90
2023-02-06T00:03:54.378Z,82.00
2023-02-06T00:06:21.482Z,82.10
2023-02-06T00:08:48.399Z,82.20
2023-02-06T00:11:19.167Z,82.20
2023-02-06T00:13:46.806Z,82.20
2023-02-06T00:16:25.491Z,82.30
2023-02-06T00:18:53.620Z,82.30
2023-02-06T00:21:25.912Z,82.30
2023-02-06T00:23:55.491Z,82.20
2023-02-06T00:26:24.482Z,82.10
2023-02-06T00:28:51.534Z,82.00
2023-02-06T00:31:18.964Z,82.00
2023-02-06T00:33:45.952Z,82.10
2023-02-06T00:36:12.996Z,82.00
2023-02-06T00:38:40.241Z,81.90
2023-02-06T00:41:07.299Z,82.00
2023-02-06T00:43:34.332Z,82.00
2023-02-06T00:46:01.452Z,81.90
2023-02-06T00:48:28.417Z,82.00
2023-02-06T00:50:57.005Z,82.00
2023-02-06T00:53:23.967Z,82.00
2023-02-06T00:55:52.087Z,82.00
2023-02-06T00:58:21.967Z,82.10
2023-02-06T01:00:48.978Z,82.10
2023-02-06T01:03:19.396Z,82.00
2023-02-06T01:05:46.452Z,82.00
2023-02-06T01:08:13.397Z,81.90
2023-02-06T01:10:42.498Z,82.00
2023-02-06T01:13:09.800Z,81.90
2023-02-06T01:15:37.452Z,81.90
2023-02-06T01:18:04.654Z,81.90
2023-02-06T01:20:31.928Z,81.80
2023-02-06T01:22:58.881Z,81.90
2023-02-06T01:25:25.860Z,81.90
2023-02-06T01:27:52.858Z,81.90
2023-02-06T01:30:20.696Z,81.90
2023-02-06T01:32:47.860Z,82.00
2023-02-06T01:35:15.973Z,82.80
2023-02-06T01:37:42.918Z,82.00
2023-02-06T01:40:14.943Z,82.10
2023-02-06T01:42:42.084Z,82.20
2023-02-06T01:45:23.937Z,82.10
2023-02-06T01:47:55.249Z,82.10
2023-02-06T01:50:22.740Z,82.10
2023-02-06T01:52:50.066Z,82.10
2023-02-06T01:55:17.329Z,82.10
2023-02-06T01:57:44.592Z,82.20
2023-02-06T02:00:12.543Z,82.10
2023-02-06T02:02:43.624Z,82.10
2023-02-06T02:05:12.751Z,82.10
2023-02-06T02:08:02.104Z,82.00
2023-02-06T02:10:30.793Z,82.00
2023-02-06T02:12:57.959Z,81.90
2023-02-06T02:15:46.822Z,81.90
2023-02-06T02:18:34.125Z,81.90
2023-02-06T02:21:23.741Z,81.90
2023-02-06T02:24:12.638Z,82.00
2023-02-06T02:26:39.523Z,82.10
2023-02-06T02:29:27.636Z,82.10
2023-02-06T02:32:05.779Z,82.30
2023-02-06T02:34:53.902Z,82.30
2023-02-06T02:38:00.126Z,82.40
2023-02-06T02:40:45.826Z,82.40
2023-02-06T02:43:42.496Z,82.30
2023-02-06T02:46:33.309Z,82.40
2023-02-06T02:49:11.898Z,82.30
2023-02-06T02:51:40.595Z,82.20
2023-02-06T02:54:07.991Z,82.10
2023-02-06T02:56:35.299Z,82.10
2023-02-06T02:59:09.576Z,82.10
2023-02-06T03:01:44.646Z,82.10
2023-02-06T03:04:19.334Z,82.00
2023-02-06T03:07:11.083Z,81.90
2023-02-06T03:09:45.894Z,81.90
2023-02-06T03:12:43.731Z,81.80
2023-02-06T03:15:18.312Z,81.90
2023-02-06T03:17:54.023Z,81.90
2023-02-06T03:20:22.663Z,82.00
2023-02-06T03:22:51.002Z,82.10
2023-02-06T03:25:25.080Z,82.30
2023-02-06T03:27:53.568Z,82.40
2023-02-06T03:30:22.443Z,82.50
2023-02-06T03:32:54.408Z,82.50
2023-02-06T03:35:29.101Z,82.70
2023-02-06T03:37:56.089Z,82.80
2023-02-06T03:40:24.613Z,83.00
2023-02-06T03:42:56.270Z,83.20
2023-02-06T03:45:31.261Z,83.30
2023-02-06T03:48:02.908Z,83.30
2023-02-06T03:50:31.804Z,83.20
2023-02-06T03:53:01.649Z,83.10
2023-02-06T03:55:28.711Z,83.00
2023-02-06T03:58:02.156Z,82.90
2023-02-06T04:00:31.688Z,83.00
2023-02-06T04:02:59.664Z,82.90
2023-02-06T04:05:27.155Z,82.90
2023-02-06T04:07:56.518Z,82.90
2023-02-06T04:10:26.180Z,82.80
2023-02-06T04:12:53.525Z,82.80
2023-02-06T04:15:20.660Z,82.80
2023-02-06T04:17:59.318Z,82.70
2023-02-06T04:20:27.401Z,82.50
2023-02-06T04:22:54.298Z,82.40
2023-02-06T04:25:21.260Z,82.40
2023-02-06T04:27:48.220Z,82.40
2023-02-06T04:30:15.735Z,82.40
2023-02-06T04:32:42.749Z,82.30
2023-02-06T04:35:10.312Z,82.40
2023-02-06T04:37:37.724Z,82.50
2023-02-06T04:40:05.231Z,82.50
2023-02-06T04:42:32.234Z,82.60
2023-02-06T04:44:59.961Z,82.50
2023-02-06T04:47:26.969Z,82.50
2023-02-06T04:49:53.941Z,82.60
2023-02-06T04:52:20.917Z,82.60
2023-02-06T04:54:47.846Z,82.60
2023-02-06T04:57:15.077Z,82.60
2023-02-06T04:59:42.123Z,82.60
2023-02-06T05:02:09.061Z,82.60
2023-02-06T05:04:35.973Z,82.60
2023-02-06T05:07:05.432Z,82.60
2023-02-06T05:09:32.638Z,82.80
2023-02-06T05:11:59.821Z,83.70
2023-02-06T05:14:26.788Z,82.90
2023-02-06T05:16:53.766Z,83.10
2023-02-06T05:19:20.638Z,83.20
2023-02-06T05:21:47.590Z,83.30
2023-02-06T05:24:14.516Z,83.30
2023-02-06T05:26:41.455Z,83.40
2023-02-06T05:29:08.472Z,83.50
2023-02-06T05:31:36.195Z,83.70
2023-02-06T05:34:03.194Z,83.80
2023-02-06T05:36:30.224Z,84.10
2023-02-06T05:38:57.201Z,84.20
2023-02-06T05:41:24.174Z,84.30
2023-02-06T05:43:51.118Z,84.30
2023-02-06T05:46:19.445Z,84.40
2023-02-06T05:48:46.514Z,84.50
2023-02-06T05:51:13.441Z,84.40
2023-02-06T05:53:40.352Z,84.50
2023-02-06T05:56:07.443Z,84.40
2023-02-06T05:58:34.719Z,84.50
2023-02-06T06:01:01.689Z,84.50
2023-02-06T06:03:28.625Z,84.50
2023-02-06T06:05:56.181Z,84.50
2023-02-06T06:08:23.134Z,84.50
2023-02-06T06:10:51.734Z,84.50
2023-02-06T06:13:19.027Z,84.50
2023-02-06T06:15:46.053Z,84.50
2023-02-06T06:18:13.109Z,84.50
2023-02-06T06:20:41.418Z,84.60
2023-02-06T06:23:08.406Z,84.60
2023-02-06T06:25:36.410Z,84.70
2023-02-06T06:28:04.062Z,84.60
2023-02-06T06:30:31.177Z,84.60
2023-02-06T06:32:58.237Z,84.50
2023-02-06T06:35:26.115Z,84.60
2023-02-06T06:37:53.132Z,84.60
2023-02-06T06:40:20.310Z,84.70
2023-02-06T06:42:47.478Z,84.70
2023-02-06T06:45:14.469Z,84.70
2023-02-06T06:47:41.570Z,84.70
2023-02-06T06:50:08.932Z,84.70
2023-02-06T06:52:35.941Z,84.70
2023-02-06T06:55:02.869Z,84.70
2023-02-06T06:57:32.956Z,84.60
2023-02-06T06:59:59.922Z,84.40
2023-02-06T07:02:28.650Z,84.30
2023-02-06T07:04:55.878Z,84.20
2023-02-06T07:07:22.916Z,84.20
2023-02-06T07:09:49.856Z,84.20
2023-02-06T07:12:16.876Z,84.30
2023-02-06T07:14:43.867Z,84.10
2023-02-06T07:17:10.870Z,84.10
2023-02-06T07:19:37.896Z,84.00
2023-02-06T07:22:05.140Z,84.00
2023-02-06T07:24:32.088Z,84.10
2023-02-06T07:26:59.117Z,84.10
2023-02-06T07:29:26.116Z,84.00
2023-02-06T07:31:53.253Z,84.00
2023-02-06T07:34:20.207Z,84.00
2023-02-06T07:36:47.669Z,84.10
2023-02-06T07:39:14.860Z,84.00
2023-02-06T07:41:42.854Z,84.00
2023-02-06T07:44:12.551Z,83.80
2023-02-06T07:46:39.485Z,83.70
2023-02-06T07:49:06.392Z,83.60
2023-02-06T07:51:33.353Z,83.40
2023-02-06T07:54:00.282Z,83.40
2023-02-06T07:56:27.258Z,83.50
2023-02-06T07:58:55.131Z,83.50
2023-02-06T08:01:23.022Z,83.50
2023-02-06T08:03:51.740Z,83.40
2023-02-06T08:06:19.944Z,83.10
2023-02-06T08:08:47.364Z,82.90
2023-02-06T08:11:20.021Z,82.60
2023-02-06T08:13:48.033Z,82.30
2023-02-06T08:16:20.543Z,82.10
2023-02-06T08:18:47.735Z,81.70
2023-02-06T08:21:21.050Z,81.50
2023-02-06T08:23:53.973Z,81.10
2023-02-06T08:26:22.386Z,80.90
2023-02-06T08:28:50.842Z,80.80
2023-02-06T08:31:27.147Z,80.90
2023-02-06T08:33:55.295Z,80.80
2023-02-06T08:36:24.170Z,80.60
2023-02-06T08:38:52.366Z,80.20
2023-02-06T08:41:24.658Z,80.00
2023-02-06T08:43:53.866Z,79.80
2023-02-06T08:46:22.132Z,79.80
2023-02-06T08:48:49.313Z,79.20
2023-02-06T08:51:16.326Z,79.20
2023-02-06T08:53:43.290Z,78.40
2023-02-06T08:56:12.350Z,77.60
2023-02-06T08:58:40.496Z,77.50
2023-02-06T09:01:16.729Z,77.90
2023-02-06T09:03:44.961Z,77.90
2023-02-06T09:06:13.149Z,77.90
2023-02-06T09:08:41.648Z,77.90
2023-02-06T09:11:15.680Z,78.00
2023-02-06T09:13:44.204Z,77.80
2023-02-06T09:16:12.268Z,77.80
2023-02-06T09:18:39.985Z,77.90
2023-02-06T09:21:20.357Z,77.40
2023-02-06T09:23:50.156Z,77.20
2023-02-06T09:26:23.349Z,76.70
2023-02-06T09:28:55.165Z,75.90
2023-02-06T09:31:22.307Z,75.30
2023-02-06T09:33:49.498Z,74.90
2023-02-06T09:36:19.566Z,74.20
2023-02-06T09:38:48.733Z,74.40
2023-02-06T09:41:31.168Z,74.20
2023-02-06T09:44:01.037Z,73.30
2023-02-06T09:46:32.131Z,72.80
2023-02-06T09:49:06.116Z,72.10
2023-02-06T09:51:59.291Z,72.00
2023-02-06T09:54:46.404Z,71.90
2023-02-06T09:57:53.849Z,72.20
2023-02-06T10:00:23.881Z,72.10
2023-02-06T10:03:00.995Z,71.90
2023-02-06T10:05:35.268Z,71.30
2023-02-06T10:08:16.778Z,70.60
2023-02-06T10:10:54.780Z,70.80
2023-02-06T10:13:24.598Z,70.20
2023-02-06T10:15:55.997Z,69.90
2023-02-06T10:18:39.626Z,69.70
2023-02-06T10:21:28.840Z,69.20
2023-02-06T10:23:59.296Z,69.20
2023-02-06T10:26:27.762Z,69.40
2023-02-06T10:28:58.081Z,69.40
2023-02-06T10:31:25.157Z,69.40
2023-02-06T10:34:00.947Z,69.50
2023-02-06T10:36:54.721Z,68.80
2023-02-06T10:39:49.914Z,69.00
2023-02-06T10:42:54.634Z,69.40
2023-02-06T10:45:36.652Z,69.40
2023-02-06T10:48:03.806Z,69.10
2023-02-06T10:50:48.671Z,68.80
2023-02-06T10:53:29.376Z,68.50
2023-02-06T10:56:13.887Z,68.30
2023-02-06T10:58:55.951Z,68.60
2023-02-06T11:01:26.830Z,68.10
2023-02-06T11:04:05.164Z,68.30
2023-02-06T11:06:32.669Z,68.10
2023-02-06T11:08:59.627Z,67.70
2023-02-06T11:11:32.264Z,67.30
2023-02-06T11:14:07.534Z,66.80
2023-02-06T11:16:37.616Z,67.20
2023-02-06T11:19:15.607Z,67.30
2023-02-06T11:21:42.567Z,67.60
2023-02-06T11:24:12.145Z,67.80
2023-02-06T11:26:46.219Z,68.20
2023-02-06T11:29:26.873Z,67.80
2023-02-06T11:31:59.531Z,67.80
2023-02-06T11:34:38.814Z,67.90
2023-02-06T11:37:32.228Z,67.50
2023-02-06T11:40:17.352Z,66.50
2023-02-06T11:42:52.690Z,66.20
2023-02-06T11:45:33.474Z,66.50
2023-02-06T11:48:01.093Z,66.40
2023-02-06T11:50:36.467Z,66.80
2023-02-06T11:53:15.545Z,67.00
2023-02-06T11:55:43.915Z,67.20
2023-02-06T11:58:13.559Z,67.30
2023-02-06T12:00:54.731Z,66.70
2023-02-06T12:03:31.142Z,67.00
2023-02-06T12:06:14.903Z,66.90
2023-02-06T12:09:00.116Z,67.10
2023-02-06T12:11:30.309Z,66.80
2023-02-06T12:14:10.184Z,66.70
2023-02-06T12:16:40.222Z,66.60
2023-02-06T12:19:12.904Z,66.60
2023-02-06T12:21:50.494Z,66.70
2023-02-06T12:24:38.007Z,66.60
2023-02-06T12:27:13.466Z,66.60
2023-02-06T12:30:27.910Z,66.70
2023-02-06T12:33:04.614Z,66.60
2023-02-06T12:35:57.249Z,66.60
2023-02-06T12:38:35.390Z,66.40
2023-02-06T12:41:39.361Z,66.40
2023-02-06T12:44:25.039Z,66.70
2023-02-06T12:47:12.162Z,67.00
2023-02-06T12:50:19.564Z,67.10
2023-02-06T12:52:50.204Z,67.00
2023-02-06T12:55:24.822Z,67.20
2023-02-06T12:57:53.142Z,67.30
2023-02-06T13:00:34.283Z,67.60
2023-02-06T13:03:19.593Z,67.60
2023-02-06T13:05:52.597Z,67.80
2023-02-06T13:08:36.917Z,67.90
2023-02-06T13:11:05.861Z,67.90
2023-02-06T13:13:37.702Z,67.60
2023-02-06T13:16:05.777Z,67.30
2023-02-06T13:18:35.993Z,66.40
2023-02-06T13:21:20.271Z,65.80
2023-02-06T13:23:51.296Z,65.60
2023-02-06T13:26:18.115Z,65.60
2023-02-06T13:28:46.802Z,65.50
2023-02-06T13:31:24.954Z,65.40
2023-02-06T13:33:53.466Z,65.30
2023-02-06T13:36:40.056Z,65.30
2023-02-06T13:39:25.793Z,64.70
2023-02-06T13:41:52.823Z,64.90
2023-02-06T13:44:31.470Z,65.30
2023-02-06T13:47:09.263Z,65.40
2023-02-06T13:49:42.013Z,65.40
2023-02-06T13:52:14.773Z,65.10
2023-02-06T13:54:56.861Z,64.90
2023-02-06T13:57:29.919Z,65.00
2023-02-06T14:00:15.589Z,64.80
2023-02-06T14:03:02.731Z,64.40
2023-02-06T14:06:02.699Z,64.40
2023-02-06T14:09:03.453Z,64.40
2023-02-06T14:12:09.246Z,64.40
2023-02-06T14:14:40.962Z,64.50
2023-02-06T14:17:38.762Z,64.30
2023-02-06T14:20:20.234Z,64.20
2023-02-06T14:22:50.149Z,63.70
2023-02-06T14:25:25.984Z,63.40
2023-02-06T14:28:04.718Z,63.10
2023-02-06T14:31:02.309Z,63.00
2023-02-06T14:33:35.369Z,62.60
2023-02-06T14:36:30.573Z,63.10
2023-02-06T14:39:29.805Z,63.20
2023-02-06T14:41:57.245Z,63.10
2023-02-06T14:44:29.356Z,63.40
2023-02-06T14:46:56.674Z,64.10
2023-02-06T14:49:30.811Z,64.30
2023-02-06T14:51:57.969Z,64.50
2023-02-06T14:54:33.588Z,64.80
2023-02-06T14:57:02.084Z,65.20
2023-02-06T14:59:29.754Z,65.60
2023-02-06T15:01:57.451Z,65.80
2023-02-06T15:04:26.292Z,65.80
2023-02-06T15:06:58.183Z,66.10
2023-02-06T15:09:25.094Z,66.30
2023-02-06T15:11:53.128Z,66.60
2023-02-06T15:14:21.890Z,66.90
2023-02-06T15:16:49.797Z,66.90
2023-02-06T15:19:20.607Z,67.10
2023-02-06T15:21:48.091Z,67.30
2023-02-06T15:24:29.334Z,67.40
2023-02-06T15:26:59.273Z,67.60
2023-02-06T15:29:29.336Z,67.60
2023-02-06T15:32:06.707Z,67.70
2023-02-06T15:34:33.985Z,67.90
2023-02-06T15:37:00.874Z,68.20
2023-02-06T15:39:27.773Z,68.30
2023-02-06T15:41:54.766Z,68.40
2023-02-06T15:44:21.548Z,68.60
2023-02-06T15:46:49.483Z,68.70
2023-02-06T15:49:31.582Z,68.90
2023-02-06T15:51:58.574Z,69.10
2023-02-06T15:54:26.967Z,69.20
2023-02-06T15:56:58.968Z,69.30
2023-02-06T15:59:26.701Z,69.30
2023-02-06T16:01:54.613Z,69.50
2023-02-06T16:04:24.305Z,69.80
2023-02-06T16:07:02.411Z,69.70
2023-02-06T16:09:29.387Z,69.80
2023-02-06T16:11:57.027Z,69.70
2023-02-06T16:14:30.038Z,69.90
2023-02-06T16:16:58.304Z,70.00
2023-02-06T16:19:39.572Z,70.00
2023-02-06T16:22:17.412Z,70.20
2023-02-06T16:24:44.396Z,70.20
2023-02-06T16:27:20.333Z,70.20
2023-02-06T16:29:48.968Z,70.30
2023-02-06T16:32:18.005Z,70.30
2023-02-06T16:34:45.912Z,70.40
2023-02-06T16:37:14.527Z,70.40
2023-02-06T16:39:42.912Z,70.40
2023-02-06T16:42:14.441Z,70.50
2023-02-06T16:44:45.360Z,70.50
2023-02-06T16:47:17.030Z,70.60
2023-02-06T16:49:44.473Z,70.60
2023-02-06T16:52:16.907Z,70.70
2023-02-06T16:54:45.027Z,70.70
2023-02-06T16:57:28.068Z,70.70
2023-02-06T16:59:55.125Z,70.80
2023-02-06T17:02:22.385Z,71.00
2023-02-06T17:04:49.541Z,71.20
2023-02-06T17:07:17.889Z,71.50
2023-02-06T17:09:45.367Z,71.70
2023-02-06T17:12:13.456Z,72.00
2023-02-06T17:14:40.378Z,72.20
2023-02-06T17:17:07.247Z,72.30
2023-02-06T17:19:34.058Z,72.50
2023-02-06T17:22:00.852Z,72.80
2023-02-06T17:24:27.726Z,73.10
2023-02-06T17:26:54.603Z,73.30
2023-02-06T17:29:21.426Z,73.50
2023-02-06T17:31:48.330Z,73.80
2023-02-06T17:34:15.229Z,73.90
2023-02-06T17:36:43.177Z,74.20
2023-02-06T17:39:11.236Z,74.50
2023-02-06T17:41:38.077Z,74.90
2023-02-06T17:44:05.449Z,75.10
2023-02-06T17:46:32.314Z,75.50
2023-02-06T17:48:59.225Z,75.80
2023-02-06T17:51:26.112Z,76.20
2023-02-06T17:53:52.934Z,76.50
2023-02-06T17:56:20.962Z,76.80
2023-02-06T17:58:47.793Z,77.00
2023-02-06T18:01:15.928Z,77.00
2023-02-06T18:03:43.250Z,77.10
2023-02-06T18:06:10.829Z,77.10
2023-02-06T18:08:37.850Z,77.00
2023-02-06T18:11:09.400Z,77.10
2023-02-06T18:13:36.256Z,77.30
2023-02-06T18:16:04.042Z,77.40
2023-02-06T18:18:31.275Z,78.20
2023-02-06T18:20:58.886Z,77.50
2023-02-06T18:23:26.097Z,77.60
2023-02-06T18:25:52.973Z,77.70
2023-02-06T18:28:20.057Z,78.00
2023-02-06T18:30:47.044Z,78.40
2023-02-06T18:33:13.934Z,78.60
2023-02-06T18:35:50.548Z,78.80
2023-02-06T18:38:17.857Z,79.20
2023-02-06T18:40:46.677Z,79.40
2023-02-06T18:43:14.152Z,79.80
2023-02-06T18:45:41.179Z,79.90
2023-02-06T18:48:09.524Z,80.10
2023-02-06T18:50:39.028Z,80.20
2023-02-06T18:53:06.079Z,80.30
2023-02-06T18:55:35.018Z,80.40
2023-02-06T18:58:02.581Z,80.50
2023-02-06T19:00:29.599Z,80.60
2023-02-06T19:02:57.866Z,80.70
2023-02-06T19:05:24.791Z,80.70
2023-02-06T19:07:52.627Z,80.80
2023-02-06T19:10:20.320Z,80.90
2023-02-06T19:12:47.310Z,80.70
2023-02-06T19:15:14.826Z,80.70
2023-02-06T19:17:41.852Z,80.60
2023-02-06T19:20:09.622Z,80.60
2023-02-06T19:22:38.119Z,80.50
2023-02-06T19:25:07.140Z,80.50
2023-02-06T19:27:35.698Z,80.40
2023-02-06T19:30:02.547Z,80.20
2023-02-06T19:32:29.401Z,80.20
2023-02-06T19:34:57.829Z,80.20
2023-02-06T19:37:24.658Z,80.30
2023-02-06T19:39:51.493Z,80.30
2023-02-06T19:42:18.871Z,81.10
2023-02-06T19:44:46.009Z,80.30
2023-02-06T19:47:12.854Z,80.20
2023-02-06T19:49:39.998Z,80.00
2023-02-06T19:52:09.535Z,80.10
2023-02-06T19:54:36.397Z,80.10
2023-02-06T19:57:03.302Z,80.10
2023-02-06T19:59:30.230Z,80.00
2023-02-06T20:01:58.377Z,80.00
2023-02-06T20:04:26.345Z,80.00
2023-02-06T20:06:53.843Z,80.00
2023-02-06T20:09:21.040Z,80.00
2023-02-06T20:11:49.140Z,80.10
2023-02-06T20:14:16.427Z,80.20
2023-02-06T20:16:43.361Z,80.20
2023-02-06T20:19:13.246Z,80.10
2023-02-06T20:21:40.922Z,80.20
2023-02-06T20:24:09.345Z,80.50
2023-02-06T20:26:37.081Z,80.60
2023-02-06T20:29:04.474Z,80.70
2023-02-06T20:31:31.762Z,80.80
2023-02-06T20:33:58.670Z,81.00
2023-02-06T20:36:26.567Z,81.00
2023-02-06T20:38:54.423Z,81.10
2023-02-06T20:41:22.851Z,81.10
2023-02-06T20:43:49.723Z,81.10
2023-02-06T20:46:17.461Z,81.10
2023-02-06T20:48:45.733Z,81.30
2023-02-06T20:51:14.157Z,81.40
2023-02-06T20:53:41.017Z,81.50
2023-02-06T20:56:12.779Z,81.60
2023-02-06T20:58:40.223Z,82.50
2023-02-06T21:01:36.507Z,81.70
2023-02-06T21:04:05.354Z,81.80
2023-02-06T21:06:34.514Z,81.70
2023-02-06T21:09:02.022Z,81.60
2023-02-06T21:11:30.435Z,81.60
2023-02-06T21:13:58.834Z,81.40
2023-02-06T21:16:26.434Z,81.40
2023-02-06T21:18:53.732Z,81.50
2023-02-06T21:21:20.986Z,81.50
2023-02-06T21:23:48.651Z,81.40
2023-02-06T21:26:17.432Z,81.20
2023-02-06T21:28:47.687Z,81.20
2023-02-06T21:31:19.746Z,81.20
2023-02-06T21:33:47.132Z,81.30
2023-02-06T21:36:14.008Z,81.20
2023-02-06T21:38:41.007Z,81.10
2023-02-06T21:41:09.031Z,80.90
2023-02-06T21:43:35.950Z,80.70
2023-02-06T21:46:03.418Z,80.30
2023-02-06T21:48:30.344Z,80.30
2023-02-06T21:50:57.161Z,80.20
2023-02-06T21:53:24.142Z,80.00
2023-02-06T21:55:51.097Z,80.00
2023-02-06T21:58:17.946Z,79.80
2023-02-06T22:00:45.698Z,79.80
2023-02-06T22:03:13.098Z,80.00
2023-02-06T22:05:40.112Z,80.00
2023-02-06T22:08:07.042Z,79.90
2023-02-06T22:10:37.316Z,80.10
2023-02-06T22:13:05.050Z,80.10
2023-02-06T22:15:32.208Z,80.10
2023-02-06T22:17:59.356Z,80.10
2023-02-06T22:20:27.262Z,80.20
2023-02-06T22:22:55.148Z,80.20
2023-02-06T22:25:22.308Z,80.40
2023-02-06T22:27:49.494Z,80.30
2023-02-06T22:30:16.399Z,80.40
2023-02-06T22:32:43.798Z,80.50
2023-02-06T22:35:10.814Z,80.60
2023-02-06T22:37:37.804Z,80.80
2023-02-06T22:40:04.785Z,81.10
2023-02-06T22:42:31.967Z,81.30
2023-02-06T22:44:59.356Z,81.50
2023-02-06T22:47:26.561Z,81.80
2023-02-06T22:49:53.571Z,82.00
2023-02-06T22:52:39.601Z,82.10
2023-02-06T22:55:06.934Z,82.20
2023-02-06T22:57:35.347Z,82.10
2023-02-06T23:00:02.275Z,81.80
2023-02-06T23:02:29.177Z,81.40
2023-02-06T23:04:56.127Z,81.10
2023-02-06T23:07:23.207Z,80.70
2023-02-06T23:09:51.129Z,80.40
2023-02-06T23:12:18.380Z,80.20
2023-02-06T23:14:45.904Z,79.90
2023-02-06T23:17:12.905Z,79.60
2023-02-06T23:19:40.200Z,79.40
2023-02-06T23:22:07.933Z,79.30
2023-02-06T23:24:34.786Z,79.20
2023-02-06T23:27:02.187Z,79.10
2023-02-06T23:29:29.182Z,78.50
2023-02-06T23:31:56.038Z,78.10
2023-02-06T23:34:24.427Z,77.90
2023-02-06T23:36:52.019Z,77.70
2023-02-06T23:39:19.153Z,77.50
2023-02-06T23:41:46.101Z,77.30
2023-02-06T23:44:13.095Z,77.10
2023-02-06T23:46:40.399Z,77.00
2023-02-06T23:49:07.804Z,77.00
2023-02-06T23:51:35.239Z,76.80
2023-02-06T23:54:02.552Z,76.70
2023-02-06T23:56:30.379Z,76.70
2023-02-06T23:58:58.191Z,77.40
